HAZ1087 ZPPP-ZGGG
Flight info
| Callsign | HAZ1087 |
|---|---|
| Flight time | N/A |
| Altitude | 37100 |
| Route | LXI1Y LXI A599 GYA GYA8 |
| Aircraft | A339/H-SADE1E2E3GHIJ3J5M1P2RWXY/LB2D1 |
Departure
| Time | N/A |
|---|---|
| Airport | Kunming Changshui International Airport (ZPPP) |
Arrival
| Time | 2026-05-06 07:32 |
|---|---|
| Airport | Guangzhou Baiyun International Airport (ZGGG) |
| Time | Latitude | Longitude | Altitude | Speed | Heading |
|---|---|---|---|---|---|
| 2026-05-06 06:04 | 24.74337 | 103.16663 | 17023 ft | 441 kts | 112° |
| 2026-05-06 06:04 | 24.73239 | 103.19842 | 17311 ft | 449 kts | 112° |
| 2026-05-06 06:05 | 24.72122 | 103.23064 | 17750 ft | 452 kts | 112° |
| 2026-05-06 06:05 | 24.70999 | 103.26293 | 18241 ft | 454 kts | 112° |
| 2026-05-06 06:05 | 24.69858 | 103.29569 | 18743 ft | 456 kts | 112° |
| 2026-05-06 06:05 | 24.68725 | 103.32818 | 19236 ft | 458 kts | 112° |
| 2026-05-06 06:06 | 24.67592 | 103.36058 | 19708 ft | 460 kts | 112° |
| 2026-05-06 06:06 | 24.66432 | 103.39376 | 20171 ft | 463 kts | 112° |
| 2026-05-06 06:06 | 24.65286 | 103.42651 | 20620 ft | 465 kts | 112° |
| 2026-05-06 06:06 | 24.64124 | 103.45970 | 21056 ft | 467 kts | 112° |
| 2026-05-06 06:07 | 24.62964 | 103.49282 | 21484 ft | 469 kts | 112° |
| 2026-05-06 06:07 | 24.61785 | 103.52644 | 21908 ft | 471 kts | 112° |
| 2026-05-06 06:07 | 24.60605 | 103.56005 | 22322 ft | 473 kts | 112° |
| 2026-05-06 06:07 | 24.59418 | 103.59385 | 22731 ft | 475 kts | 112° |
| 2026-05-06 06:08 | 24.58230 | 103.62766 | 23105 ft | 478 kts | 112° |
| 2026-05-06 06:08 | 24.57029 | 103.66178 | 23480 ft | 481 kts | 112° |
| 2026-05-06 06:08 | 24.55831 | 103.69582 | 23835 ft | 483 kts | 112° |
| 2026-05-06 06:08 | 24.54675 | 103.73077 | 24191 ft | 487 kts | 110° |
| 2026-05-06 06:09 | 24.53699 | 103.76599 | 24546 ft | 490 kts | 107° |
| 2026-05-06 06:09 | 24.52876 | 103.80231 | 24891 ft | 492 kts | 104° |
| 2026-05-06 06:09 | 24.52090 | 103.83924 | 25245 ft | 495 kts | 104° |
| 2026-05-06 06:09 | 24.51311 | 103.87626 | 25592 ft | 497 kts | 104° |
| 2026-05-06 06:10 | 24.50538 | 103.91295 | 25917 ft | 499 kts | 104° |
| 2026-05-06 06:10 | 24.49751 | 103.95014 | 26228 ft | 502 kts | 104° |
| 2026-05-06 06:10 | 24.48958 | 103.98745 | 26550 ft | 504 kts | 104° |
| 2026-05-06 06:10 | 24.48164 | 104.02469 | 26871 ft | 506 kts | 104° |
| 2026-05-06 06:11 | 24.47359 | 104.06238 | 27167 ft | 509 kts | 105° |
| 2026-05-06 06:11 | 24.46545 | 104.10038 | 27435 ft | 512 kts | 104° |
| 2026-05-06 06:11 | 24.45724 | 104.13863 | 27719 ft | 515 kts | 105° |
| 2026-05-06 06:11 | 24.44908 | 104.17658 | 27999 ft | 517 kts | 104° |
| 2026-05-06 06:12 | 24.44076 | 104.21523 | 28275 ft | 519 kts | 104° |
| 2026-05-06 06:12 | 24.43252 | 104.25349 | 28652 ft | 520 kts | 105° |
| 2026-05-06 06:12 | 24.42416 | 104.29229 | 29075 ft | 518 kts | 104° |
| 2026-05-06 06:12 | 24.41588 | 104.33061 | 29496 ft | 518 kts | 104° |
| 2026-05-06 06:13 | 24.40770 | 104.36845 | 29911 ft | 517 kts | 104° |
| 2026-05-06 06:13 | 24.39935 | 104.40703 | 30325 ft | 516 kts | 104° |
| 2026-05-06 06:13 | 24.39116 | 104.44479 | 30717 ft | 515 kts | 104° |
| 2026-05-06 06:13 | 24.38285 | 104.48304 | 31115 ft | 515 kts | 104° |
| 2026-05-06 06:14 | 24.37458 | 104.52108 | 31517 ft | 514 kts | 104° |
| 2026-05-06 06:14 | 24.36635 | 104.55890 | 31918 ft | 513 kts | 104° |
| 2026-05-06 06:14 | 24.35803 | 104.59708 | 32318 ft | 512 kts | 104° |
| 2026-05-06 06:14 | 24.34983 | 104.63463 | 32711 ft | 512 kts | 104° |
| 2026-05-06 06:15 | 24.34153 | 104.67264 | 33137 ft | 510 kts | 104° |
| 2026-05-06 06:15 | 24.33336 | 104.71006 | 33665 ft | 507 kts | 104° |
| 2026-05-06 06:15 | 24.32516 | 104.74752 | 34335 ft | 502 kts | 104° |
| 2026-05-06 06:15 | 24.31707 | 104.78447 | 35011 ft | 496 kts | 104° |
| 2026-05-06 06:16 | 24.30913 | 104.82067 | 35683 ft | 490 kts | 104° |
| 2026-05-06 06:16 | 24.30125 | 104.85654 | 36359 ft | 483 kts | 104° |
| 2026-05-06 06:16 | 24.29343 | 104.89208 | 36919 ft | 478 kts | 104° |
| 2026-05-06 06:16 | 24.28565 | 104.92743 | 37086 ft | 482 kts | 104° |
| 2026-05-06 06:17 | 24.26967 | 104.99975 | 37068 ft | 496 kts | 104° |
| 2026-05-06 06:17 | 24.25324 | 105.07402 | 37063 ft | 509 kts | 104° |
| 2026-05-06 06:18 | 24.23638 | 105.15010 | 37048 ft | 523 kts | 104° |
| 2026-05-06 06:18 | 24.21894 | 105.22831 | 37041 ft | 535 kts | 105° |
| 2026-05-06 06:19 | 24.19999 | 105.30720 | 37040 ft | 536 kts | 105° |
| 2026-05-06 06:19 | 24.18077 | 105.38570 | 37044 ft | 536 kts | 105° |
| 2026-05-06 06:20 | 24.16158 | 105.46445 | 37019 ft | 536 kts | 105° |
| 2026-05-06 06:20 | 24.14246 | 105.54304 | 37007 ft | 535 kts | 105° |
| 2026-05-06 06:21 | 24.12330 | 105.62159 | 37001 ft | 535 kts | 105° |
| 2026-05-06 06:21 | 24.10436 | 105.69965 | 37001 ft | 535 kts | 104° |
| 2026-05-06 06:22 | 24.08822 | 105.77885 | 37006 ft | 534 kts | 103° |
| 2026-05-06 06:22 | 24.07266 | 105.85798 | 36990 ft | 534 kts | 102° |
| 2026-05-06 06:23 | 24.05694 | 105.93747 | 36967 ft | 534 kts | 103° |
| 2026-05-06 06:23 | 24.04122 | 106.01646 | 36947 ft | 534 kts | 103° |
| 2026-05-06 06:24 | 24.02541 | 106.09549 | 36940 ft | 533 kts | 102° |
| 2026-05-06 06:24 | 24.00955 | 106.17471 | 36931 ft | 534 kts | 102° |
| 2026-05-06 06:25 | 23.99366 | 106.25385 | 36925 ft | 533 kts | 102° |
| 2026-05-06 06:26 | 23.96979 | 106.37226 | 36935 ft | 533 kts | 102° |
| 2026-05-06 06:26 | 23.95390 | 106.45082 | 36939 ft | 533 kts | 102° |
| 2026-05-06 06:27 | 23.93790 | 106.52972 | 36939 ft | 533 kts | 102° |
| 2026-05-06 06:27 | 23.92400 | 106.60898 | 36948 ft | 532 kts | 97° |
| 2026-05-06 06:28 | 23.91709 | 106.68914 | 36951 ft | 533 kts | 94° |
| 2026-05-06 06:28 | 23.91197 | 106.76964 | 36956 ft | 533 kts | 94° |
| 2026-05-06 06:29 | 23.90674 | 106.85055 | 36956 ft | 532 kts | 94° |
| 2026-05-06 06:29 | 23.90142 | 106.93038 | 36956 ft | 531 kts | 94° |
| 2026-05-06 06:30 | 23.89597 | 107.01113 | 36954 ft | 532 kts | 94° |
| 2026-05-06 06:30 | 23.89049 | 107.09135 | 36956 ft | 532 kts | 94° |
| 2026-05-06 06:31 | 23.88496 | 107.17173 | 36953 ft | 531 kts | 94° |
| 2026-05-06 06:31 | 23.87942 | 107.25183 | 36949 ft | 532 kts | 94° |
| 2026-05-06 06:32 | 23.87381 | 107.33199 | 36948 ft | 532 kts | 94° |
| 2026-05-06 06:32 | 23.86814 | 107.41253 | 36947 ft | 532 kts | 94° |
| 2026-05-06 06:33 | 23.86245 | 107.49287 | 36949 ft | 532 kts | 94° |
| 2026-05-06 06:33 | 23.85672 | 107.57317 | 36953 ft | 532 kts | 94° |
| 2026-05-06 06:34 | 23.85095 | 107.65346 | 36961 ft | 532 kts | 94° |
| 2026-05-06 06:34 | 23.84511 | 107.73404 | 36970 ft | 532 kts | 94° |
| 2026-05-06 06:35 | 23.83927 | 107.81402 | 36970 ft | 532 kts | 94° |
| 2026-05-06 06:35 | 23.83395 | 107.89449 | 36957 ft | 532 kts | 92° |
| 2026-05-06 06:36 | 23.83016 | 107.97504 | 36940 ft | 533 kts | 92° |
| 2026-05-06 06:36 | 23.82627 | 108.05550 | 36930 ft | 532 kts | 92° |
| 2026-05-06 06:37 | 23.82215 | 108.13600 | 36932 ft | 532 kts | 92° |
| 2026-05-06 06:37 | 23.81784 | 108.21632 | 36936 ft | 532 kts | 92° |
| 2026-05-06 06:38 | 23.81330 | 108.29707 | 36941 ft | 532 kts | 92° |
| 2026-05-06 06:38 | 23.80876 | 108.37735 | 36946 ft | 532 kts | 92° |
| 2026-05-06 06:39 | 23.80419 | 108.45743 | 36954 ft | 532 kts | 92° |
| 2026-05-06 06:39 | 23.79957 | 108.53807 | 36962 ft | 532 kts | 92° |
| 2026-05-06 06:40 | 23.79491 | 108.61851 | 36966 ft | 532 kts | 92° |
| 2026-05-06 06:40 | 23.79025 | 108.69846 | 36966 ft | 532 kts | 93° |
| 2026-05-06 06:41 | 23.78549 | 108.77911 | 36969 ft | 532 kts | 93° |
| 2026-05-06 06:41 | 23.78072 | 108.85931 | 36962 ft | 532 kts | 93° |
| 2026-05-06 06:42 | 23.77592 | 108.93948 | 36953 ft | 532 kts | 93° |
| 2026-05-06 06:42 | 23.77106 | 109.01990 | 36940 ft | 531 kts | 93° |
| 2026-05-06 06:43 | 23.76615 | 109.09989 | 36938 ft | 530 kts | 94° |
| 2026-05-06 06:43 | 23.75660 | 109.17956 | 36934 ft | 531 kts | 100° |
| 2026-05-06 06:44 | 23.74113 | 109.25819 | 36928 ft | 535 kts | 102° |
| 2026-05-06 06:44 | 23.72497 | 109.33726 | 36923 ft | 537 kts | 102° |
| 2026-05-06 06:45 | 23.70882 | 109.41676 | 36932 ft | 537 kts | 102° |
| 2026-05-06 06:45 | 23.69280 | 109.49587 | 36938 ft | 537 kts | 102° |
| 2026-05-06 06:46 | 23.67666 | 109.57544 | 36946 ft | 537 kts | 102° |
| 2026-05-06 06:46 | 23.66051 | 109.65452 | 36957 ft | 537 kts | 102° |
| 2026-05-06 06:47 | 23.64417 | 109.73366 | 36965 ft | 536 kts | 102° |
| 2026-05-06 06:47 | 23.62773 | 109.81307 | 36975 ft | 536 kts | 102° |
| 2026-05-06 06:48 | 23.61138 | 109.89186 | 36984 ft | 535 kts | 102° |
| 2026-05-06 06:48 | 23.59498 | 109.97082 | 36991 ft | 535 kts | 102° |
| 2026-05-06 06:49 | 23.57845 | 110.05016 | 37001 ft | 535 kts | 102° |
| 2026-05-06 06:49 | 23.56199 | 110.12902 | 36993 ft | 535 kts | 102° |
| 2026-05-06 06:50 | 23.54550 | 110.20782 | 36977 ft | 536 kts | 102° |
| 2026-05-06 06:50 | 23.52896 | 110.28662 | 36958 ft | 536 kts | 102° |
| 2026-05-06 06:51 | 23.51231 | 110.36571 | 36950 ft | 536 kts | 102° |
| 2026-05-06 06:51 | 23.49620 | 110.44447 | 36946 ft | 535 kts | 102° |
| 2026-05-06 06:52 | 23.48026 | 110.52326 | 36949 ft | 536 kts | 101° |
| 2026-05-06 06:52 | 23.46416 | 110.60240 | 36954 ft | 535 kts | 101° |
| 2026-05-06 06:53 | 23.44801 | 110.68145 | 36959 ft | 535 kts | 102° |
| 2026-05-06 06:53 | 23.43178 | 110.75996 | 36962 ft | 535 kts | 102° |
| 2026-05-06 06:54 | 23.41507 | 110.83902 | 36968 ft | 535 kts | 102° |
| 2026-05-06 06:54 | 23.39836 | 110.91786 | 36971 ft | 535 kts | 102° |
| 2026-05-06 06:55 | 23.38164 | 110.99676 | 36978 ft | 535 kts | 102° |
| 2026-05-06 06:55 | 23.36493 | 111.07550 | 36982 ft | 536 kts | 102° |
| 2026-05-06 06:56 | 23.34819 | 111.15420 | 36981 ft | 535 kts | 102° |
| 2026-05-06 06:56 | 23.33207 | 111.23257 | 36979 ft | 535 kts | 102° |
| 2026-05-06 06:57 | 23.31601 | 111.31155 | 36977 ft | 535 kts | 102° |
| 2026-05-06 06:57 | 23.29984 | 111.39059 | 36976 ft | 535 kts | 102° |
| 2026-05-06 06:58 | 23.28369 | 111.46914 | 36971 ft | 535 kts | 102° |
| 2026-05-06 06:58 | 23.26741 | 111.54786 | 36971 ft | 535 kts | 102° |
| 2026-05-06 06:59 | 23.25080 | 111.62638 | 36977 ft | 535 kts | 102° |
| 2026-05-06 06:59 | 23.23401 | 111.70543 | 36944 ft | 532 kts | 102° |
| 2026-05-06 06:59 | 23.22574 | 111.74444 | 36653 ft | 527 kts | 102° |
| 2026-05-06 07:00 | 23.21745 | 111.78347 | 36190 ft | 522 kts | 102° |
| 2026-05-06 07:00 | 23.20939 | 111.82139 | 35564 ft | 521 kts | 102° |
| 2026-05-06 07:00 | 23.20128 | 111.85990 | 34832 ft | 521 kts | 102° |
| 2026-05-06 07:00 | 23.19335 | 111.89804 | 34059 ft | 521 kts | 102° |
| 2026-05-06 07:01 | 23.18537 | 111.93649 | 33253 ft | 523 kts | 102° |
| 2026-05-06 07:01 | 23.17744 | 111.97469 | 32456 ft | 524 kts | 102° |
| 2026-05-06 07:01 | 23.16936 | 112.01356 | 31672 ft | 525 kts | 102° |
| 2026-05-06 07:01 | 23.16133 | 112.05212 | 30902 ft | 526 kts | 102° |
| 2026-05-06 07:02 | 23.15328 | 112.09061 | 30138 ft | 526 kts | 102° |
| 2026-05-06 07:02 | 23.14520 | 112.12922 | 29363 ft | 527 kts | 102° |
| 2026-05-06 07:02 | 23.13709 | 112.16798 | 28577 ft | 527 kts | 103° |
| 2026-05-06 07:02 | 23.12896 | 112.20675 | 27906 ft | 524 kts | 103° |
| 2026-05-06 07:03 | 23.12095 | 112.24490 | 27366 ft | 520 kts | 103° |
| 2026-05-06 07:03 | 23.11303 | 112.28258 | 26932 ft | 513 kts | 103° |
| 2026-05-06 07:03 | 23.10509 | 112.32029 | 26517 ft | 506 kts | 103° |
| 2026-05-06 07:03 | 23.09729 | 112.35729 | 26058 ft | 500 kts | 103° |
| 2026-05-06 07:04 | 23.08961 | 112.39371 | 25563 ft | 496 kts | 103° |
| 2026-05-06 07:04 | 23.08193 | 112.43002 | 25041 ft | 492 kts | 103° |
| 2026-05-06 07:04 | 23.07490 | 112.46596 | 24540 ft | 488 kts | 100° |
| 2026-05-06 07:04 | 23.07071 | 112.50224 | 24049 ft | 484 kts | 95° |
| 2026-05-06 07:05 | 23.06948 | 112.53835 | 23549 ft | 480 kts | 90° |
| 2026-05-06 07:05 | 23.06942 | 112.57437 | 23047 ft | 477 kts | 90° |
| 2026-05-06 07:05 | 23.06962 | 112.61025 | 22554 ft | 473 kts | 90° |
| 2026-05-06 07:05 | 23.06978 | 112.64566 | 22066 ft | 469 kts | 90° |
| 2026-05-06 07:06 | 23.06983 | 112.68106 | 21552 ft | 466 kts | 90° |
| 2026-05-06 07:06 | 23.06980 | 112.71605 | 21052 ft | 463 kts | 90° |
| 2026-05-06 07:06 | 23.06966 | 112.75065 | 20554 ft | 460 kts | 91° |
| 2026-05-06 07:06 | 23.06939 | 112.78518 | 20065 ft | 457 kts | 91° |
| 2026-05-06 07:07 | 23.06908 | 112.81973 | 19563 ft | 454 kts | 91° |
| 2026-05-06 07:07 | 23.06877 | 112.85355 | 19077 ft | 451 kts | 91° |
| 2026-05-06 07:07 | 23.06847 | 112.88767 | 18645 ft | 446 kts | 91° |
| 2026-05-06 07:07 | 23.06818 | 112.92092 | 18306 ft | 439 kts | 91° |
| 2026-05-06 07:08 | 23.06789 | 112.95385 | 17966 ft | 433 kts | 91° |
| 2026-05-06 07:08 | 23.06760 | 112.98595 | 17626 ft | 427 kts | 91° |
| 2026-05-06 07:08 | 23.06731 | 113.01788 | 17286 ft | 421 kts | 91° |
| 2026-05-06 07:08 | 23.06702 | 113.04951 | 16966 ft | 416 kts | 91° |
| 2026-05-06 07:09 | 23.06671 | 113.08087 | 16653 ft | 410 kts | 91° |
| 2026-05-06 07:09 | 23.06641 | 113.11145 | 16347 ft | 404 kts | 91° |
| 2026-05-06 07:09 | 23.06344 | 113.14105 | 16056 ft | 396 kts | 108° |
| 2026-05-06 07:09 | 23.05048 | 113.16712 | 15779 ft | 386 kts | 133° |
| 2026-05-06 07:10 | 23.02978 | 113.18425 | 15505 ft | 374 kts | 158° |
| 2026-05-06 07:10 | 23.00508 | 113.19021 | 15228 ft | 360 kts | 184° |
| 2026-05-06 07:10 | 22.98085 | 113.18523 | 14962 ft | 349 kts | 204° |
| 2026-05-06 07:10 | 22.96046 | 113.17206 | 14698 ft | 339 kts | 223° |
| 2026-05-06 07:11 | 22.94556 | 113.15257 | 14442 ft | 330 kts | 243° |
| 2026-05-06 07:11 | 22.93777 | 113.12964 | 14183 ft | 323 kts | 261° |
| 2026-05-06 07:11 | 22.93678 | 113.10551 | 13924 ft | 318 kts | 271° |
| 2026-05-06 07:11 | 22.93739 | 113.08156 | 13686 ft | 314 kts | 271° |
| 2026-05-06 07:12 | 22.93789 | 113.05817 | 13456 ft | 309 kts | 271° |
| 2026-05-06 07:12 | 22.93826 | 113.03499 | 13231 ft | 305 kts | 271° |
| 2026-05-06 07:12 | 22.93851 | 113.01232 | 13010 ft | 301 kts | 271° |
| 2026-05-06 07:12 | 22.94071 | 112.99002 | 12774 ft | 297 kts | 286° |
| 2026-05-06 07:13 | 22.94934 | 112.96998 | 12551 ft | 295 kts | 303° |
| 2026-05-06 07:13 | 22.96341 | 112.95381 | 12326 ft | 294 kts | 321° |
| 2026-05-06 07:13 | 22.98130 | 112.94321 | 12109 ft | 294 kts | 338° |
| 2026-05-06 07:13 | 23.00139 | 112.93903 | 11895 ft | 295 kts | 356° |
| 2026-05-06 07:14 | 23.02193 | 112.94188 | 11687 ft | 296 kts | 14° |
| 2026-05-06 07:14 | 23.04044 | 112.95145 | 11487 ft | 297 kts | 33° |
| 2026-05-06 07:14 | 23.05532 | 112.96685 | 11292 ft | 297 kts | 52° |
| 2026-05-06 07:14 | 23.06502 | 112.98666 | 11100 ft | 295 kts | 72° |
| 2026-05-06 07:15 | 23.06848 | 113.00820 | 10919 ft | 291 kts | 89° |
| 2026-05-06 07:15 | 23.06828 | 113.03014 | 10769 ft | 285 kts | 92° |
| 2026-05-06 07:15 | 23.06757 | 113.05125 | 10735 ft | 279 kts | 92° |
| 2026-05-06 07:15 | 23.06698 | 113.07246 | 10729 ft | 281 kts | 92° |
| 2026-05-06 07:16 | 23.06659 | 113.09354 | 10722 ft | 281 kts | 91° |
| 2026-05-06 07:16 | 23.06631 | 113.11480 | 10719 ft | 281 kts | 91° |
| 2026-05-06 07:16 | 23.06745 | 113.13649 | 10720 ft | 298 kts | 76° |
| 2026-05-06 07:16 | 23.07594 | 113.15847 | 10731 ft | 323 kts | 55° |
| 2026-05-06 07:17 | 23.09137 | 113.17722 | 10731 ft | 344 kts | 36° |
| 2026-05-06 07:17 | 23.11291 | 113.19025 | 10730 ft | 363 kts | 16° |
| 2026-05-06 07:17 | 23.13812 | 113.19477 | 10731 ft | 376 kts | 356° |
| 2026-05-06 07:17 | 23.16401 | 113.18912 | 10725 ft | 375 kts | 335° |
| 2026-05-06 07:18 | 23.18601 | 113.17475 | 10738 ft | 372 kts | 321° |
| 2026-05-06 07:18 | 23.20839 | 113.15970 | 10704 ft | 376 kts | 334° |
| 2026-05-06 07:18 | 23.23375 | 113.15346 | 10463 ft | 375 kts | 356° |
| 2026-05-06 07:18 | 23.25926 | 113.15697 | 10299 ft | 368 kts | 8° |
| 2026-05-06 07:19 | 23.28414 | 113.16209 | 10197 ft | 356 kts | 8° |
| 2026-05-06 07:19 | 23.30814 | 113.16695 | 10138 ft | 344 kts | 8° |
| 2026-05-06 07:19 | 23.33149 | 113.17175 | 10071 ft | 333 kts | 8° |
| 2026-05-06 07:19 | 23.35371 | 113.17638 | 10023 ft | 322 kts | 8° |
| 2026-05-06 07:20 | 23.37548 | 113.18094 | 9996 ft | 312 kts | 8° |
| 2026-05-06 07:20 | 23.39668 | 113.18541 | 9779 ft | 308 kts | 8° |
| 2026-05-06 07:20 | 23.41803 | 113.18990 | 9478 ft | 308 kts | 8° |
| 2026-05-06 07:20 | 23.43936 | 113.19439 | 9172 ft | 308 kts | 8° |
| 2026-05-06 07:21 | 23.46037 | 113.19878 | 8869 ft | 308 kts | 8° |
| 2026-05-06 07:21 | 23.48146 | 113.20312 | 8587 ft | 307 kts | 8° |
| 2026-05-06 07:21 | 23.50250 | 113.20744 | 8279 ft | 306 kts | 8° |
| 2026-05-06 07:21 | 23.52358 | 113.21176 | 7998 ft | 304 kts | 8° |
| 2026-05-06 07:22 | 23.54450 | 113.21608 | 7732 ft | 303 kts | 8° |
| 2026-05-06 07:22 | 23.56518 | 113.22034 | 7453 ft | 302 kts | 8° |
| 2026-05-06 07:22 | 23.58598 | 113.22464 | 7172 ft | 300 kts | 8° |
| 2026-05-06 07:22 | 23.60609 | 113.22881 | 7101 ft | 291 kts | 8° |
| 2026-05-06 07:23 | 23.62559 | 113.23286 | 7100 ft | 280 kts | 8° |
| 2026-05-06 07:23 | 23.64472 | 113.23683 | 7073 ft | 269 kts | 8° |
| 2026-05-06 07:23 | 23.66280 | 113.24058 | 7039 ft | 259 kts | 8° |
| 2026-05-06 07:23 | 23.68055 | 113.24477 | 6919 ft | 262 kts | 11° |
| 2026-05-06 07:24 | 23.69759 | 113.25203 | 6610 ft | 267 kts | 38° |
| 2026-05-06 07:24 | 23.70837 | 113.26821 | 6344 ft | 266 kts | 76° |
| 2026-05-06 07:24 | 23.70952 | 113.28784 | 6156 ft | 258 kts | 98° |
| 2026-05-06 07:24 | 23.70741 | 113.30695 | 5999 ft | 253 kts | 99° |
| 2026-05-06 07:25 | 23.70575 | 113.32613 | 5809 ft | 250 kts | 96° |
| 2026-05-06 07:25 | 23.70496 | 113.34482 | 5626 ft | 246 kts | 94° |
| 2026-05-06 07:25 | 23.70166 | 113.36274 | 5408 ft | 238 kts | 124° |
| 2026-05-06 07:25 | 23.69008 | 113.37460 | 5217 ft | 228 kts | 155° |
| 2026-05-06 07:26 | 23.67527 | 113.38007 | 5047 ft | 220 kts | 172° |
| 2026-05-06 07:26 | 23.66029 | 113.38090 | 4869 ft | 213 kts | 185° |
| 2026-05-06 07:26 | 23.64556 | 113.37846 | 4595 ft | 211 kts | 193° |
| 2026-05-06 07:26 | 23.63126 | 113.37470 | 4322 ft | 209 kts | 194° |
| 2026-05-06 07:27 | 23.61717 | 113.37071 | 4058 ft | 208 kts | 194° |
| 2026-05-06 07:27 | 23.60326 | 113.36681 | 3799 ft | 206 kts | 194° |
| 2026-05-06 07:27 | 23.58922 | 113.36294 | 3536 ft | 206 kts | 193° |
| 2026-05-06 07:27 | 23.57530 | 113.35915 | 3272 ft | 205 kts | 193° |
| 2026-05-06 07:28 | 23.56139 | 113.35540 | 3006 ft | 204 kts | 192° |
| 2026-05-06 07:28 | 23.54777 | 113.35175 | 2748 ft | 199 kts | 193° |
| 2026-05-06 07:28 | 23.52156 | 113.34469 | 2256 ft | 184 kts | 192° |
| 2026-05-06 07:29 | 23.50948 | 113.34144 | 2033 ft | 179 kts | 193° |
| 2026-05-06 07:29 | 23.49748 | 113.33820 | 1808 ft | 174 kts | 192° |
| 2026-05-06 07:29 | 23.48579 | 113.33505 | 1595 ft | 168 kts | 193° |
| 2026-05-06 07:29 | 23.47460 | 113.33204 | 1376 ft | 162 kts | 192° |
| 2026-05-06 07:30 | 23.46395 | 113.32916 | 1174 ft | 155 kts | 192° |
| 2026-05-06 07:30 | 23.45377 | 113.32642 | 978 ft | 148 kts | 192° |
| 2026-05-06 07:30 | 23.44437 | 113.32388 | 809 ft | 147 kts | 192° |
| 2026-05-06 07:30 | 23.43428 | 113.32116 | 621 ft | 147 kts | 192° |
| 2026-05-06 07:31 | 23.42433 | 113.31845 | 426 ft | 147 kts | 193° |
| 2026-05-06 07:31 | 23.41433 | 113.31566 | 231 ft | 148 kts | 192° |
| 2026-05-06 07:31 | 23.40450 | 113.31303 | 65 ft | 139 kts | 191° |
| 2026-05-06 07:31 | 23.39621 | 113.31095 | 60 ft | 98 kts | 194° |
| 2026-05-06 07:32 | 23.39137 | 113.30957 | 60 ft | 46 kts | 201° |
| 2026-05-06 07:32 | 23.38933 | 113.30819 | 60 ft | 26 kts | 220° |
| 2026-05-06 07:32 | 23.38841 | 113.30728 | 60 ft | 16 kts | 221° |
| 2026-05-06 07:32 | 23.38821 | 113.30667 | 60 ft | 8 kts | 275° |
| 2026-05-06 07:33 | 23.38831 | 113.30603 | 60 ft | 9 kts | 283° |
| 2026-05-06 07:33 | 23.38847 | 113.30528 | 60 ft | 10 kts | 284° |
| 2026-05-06 07:33 | 23.38866 | 113.30447 | 60 ft | 10 kts | 276° |
| 2026-05-06 07:33 | 23.38891 | 113.30384 | 60 ft | 7 kts | 290° |
| 2026-05-06 07:34 | 23.38879 | 113.30346 | 60 ft | 6 kts | 225° |
| 2026-05-06 07:34 | 23.38850 | 113.30316 | 60 ft | 5 kts | 223° |
| 2026-05-06 07:34 | 23.38844 | 113.30309 | 60 ft | 0 kts | 223° |